sensor_id;sensor_type;location;lat;lon;timestamp;pressure;altitude;pressure_sealevel;temperature;humidity
72438;BME280;60444;43.534;-5.674;2023-02-18T00:00:53;103066.94;;;9.99;100.00
72438;BME280;60444;43.534;-5.674;2023-02-18T00:03:18;103057.97;;;9.94;100.00
72438;BME280;60444;43.534;-5.674;2023-02-18T00:05:44;103044.53;;;9.87;100.00
72438;BME280;60444;43.534;-5.674;2023-02-18T00:08:09;103045.44;;;9.89;100.00
72438;BME280;60444;43.534;-5.674;2023-02-18T00:10:34;103059.78;;;9.94;100.00
72438;BME280;60444;43.534;-5.674;2023-02-18T00:13:00;103057.13;;;9.91;100.00
72438;BME280;60444;43.534;-5.674;2023-02-18T00:15:26;103054.38;;;9.94;100.00
72438;BME280;60444;43.534;-5.674;2023-02-18T00:17:51;103045.44;;;9.89;100.00
72438;BME280;60444;43.534;-5.674;2023-02-18T00:20:17;103046.28;;;9.92;100.00
72438;BME280;60444;43.534;-5.674;2023-02-18T00:22:42;103043.63;;;9.86;100.00
72438;BME280;60444;43.534;-5.674;2023-02-18T00:25:08;103053.50;;;9.90;100.00
72438;BME280;60444;43.534;-5.674;2023-02-18T00:27:33;103049.06;;;9.85;100.00
72438;BME280;60444;43.534;-5.674;2023-02-18T00:29:59;103051.81;;;9.82;100.00
72438;BME280;60444;43.534;-5.674;2023-02-18T00:32:24;103041.91;;;9.79;100.00
72438;BME280;60444;43.534;-5.674;2023-02-18T00:34:50;103050.97;;;9.74;100.00
72438;BME280;60444;43.534;-5.674;2023-02-18T00:37:15;103047.34;;;9.76;100.00
72438;BME280;60444;43.534;-5.674;2023-02-18T00:39:41;103051.00;;;9.72;100.00
72438;BME280;60444;43.534;-5.674;2023-02-18T00:42:07;103029.41;;;9.68;100.00
72438;BME280;60444;43.534;-5.674;2023-02-18T00:44:32;103051.91;;;9.73;100.00
72438;BME280;60444;43.534;-5.674;2023-02-18T00:46:58;103035.75;;;9.65;100.00
72438;BME280;60444;43.534;-5.674;2023-02-18T00:49:23;103051.94;;;9.68;100.00
72438;BME280;60444;43.534;-5.674;2023-02-18T00:51:49;103034.91;;;9.59;100.00
72438;BME280;60444;43.534;-5.674;2023-02-18T00:54:15;103013.41;;;9.47;100.00
72438;BME280;60444;43.534;-5.674;2023-02-18T00:56:40;103038.50;;;9.62;100.00
72438;BME280;60444;43.534;-5.674;2023-02-18T00:59:06;103036.66;;;9.66;100.00
72438;BME280;60444;43.534;-5.674;2023-02-18T01:01:31;103009.72;;;9.54;100.00
72438;BME280;60444;43.534;-5.674;2023-02-18T01:03:57;103044.75;;;9.66;100.00
72438;BME280;60444;43.534;-5.674;2023-02-18T01:06:22;103038.53;;;9.58;100.00
72438;BME280;60444;43.534;-5.674;2023-02-18T01:08:48;103039.47;;;9.52;100.00
72438;BME280;60444;43.534;-5.674;2023-02-18T01:11:14;103050.25;;;9.55;100.00
72438;BME280;60444;43.534;-5.674;2023-02-18T01:13:40;103044.84;;;9.55;100.00
72438;BME280;60444;43.534;-5.674;2023-02-18T01:16:07;103039.50;;;9.49;100.00
72438;BME280;60444;43.534;-5.674;2023-02-18T01:18:33;103037.75;;;9.45;100.00
72438;BME280;60444;43.534;-5.674;2023-02-18T01:20:59;103028.88;;;9.31;100.00
72438;BME280;60444;43.534;-5.674;2023-02-18T01:23:24;103039.59;;;9.37;100.00
72438;BME280;60444;43.534;-5.674;2023-02-18T01:25:50;103029.72;;;9.31;100.00
72438;BME280;60444;43.534;-5.674;2023-02-18T01:28:17;103043.09;;;9.48;100.00
72438;BME280;60444;43.534;-5.674;2023-02-18T01:30:43;103033.31;;;9.33;100.00
72438;BME280;60444;43.534;-5.674;2023-02-18T01:33:09;103033.41;;;9.27;100.00
72438;BME280;60444;43.534;-5.674;2023-02-18T01:35:37;103034.28;;;9.28;100.00
72438;BME280;60444;43.534;-5.674;2023-02-18T01:38:02;103044.09;;;9.38;100.00
72438;BME280;60444;43.534;-5.674;2023-02-18T01:40:28;103043.25;;;9.33;100.00
72438;BME280;60444;43.534;-5.674;2023-02-18T01:42:54;103046.00;;;9.25;100.00
72438;BME280;60444;43.534;-5.674;2023-02-18T01:45:38;103036.09;;;9.27;100.00
72438;BME280;60444;43.534;-5.674;2023-02-18T01:50:43;103024.44;;;9.21;100.00
72438;BME280;60444;43.534;-5.674;2023-02-18T01:53:11;103011.84;;;9.20;100.00
72438;BME280;60444;43.534;-5.674;2023-02-18T01:55:39;103002.91;;;9.15;100.00
72438;BME280;60444;43.534;-5.674;2023-02-18T01:58:04;103014.53;;;9.21;100.00
72438;BME280;60444;43.534;-5.674;2023-02-18T02:00:31;102979.53;;;9.11;100.00
72438;BME280;60444;43.534;-5.674;2023-02-18T02:02:57;103018.97;;;9.28;100.00
72438;BME280;60444;43.534;-5.674;2023-02-18T02:05:23;103012.66;;;9.28;100.00
72438;BME280;60444;43.534;-5.674;2023-02-18T02:07:51;103004.63;;;9.23;100.00
72438;BME280;60444;43.534;-5.674;2023-02-18T02:10:18;103018.09;;;9.25;100.00
72438;BME280;60444;43.534;-5.674;2023-02-18T02:15:54;103020.75;;;9.28;100.00
72438;BME280;60444;43.534;-5.674;2023-02-18T02:18:48;103024.44;;;9.22;100.00
72438;BME280;60444;43.534;-5.674;2023-02-18T02:27:20;103022.66;;;9.15;100.00
72438;BME280;60444;43.534;-5.674;2023-02-18T02:35:25;103024.47;;;9.18;100.00
72438;BME280;60444;43.534;-5.674;2023-02-18T02:38:09;103014.63;;;9.11;100.00
72438;BME280;60444;43.534;-5.674;2023-02-18T02:41:15;103005.63;;;9.09;100.00
72438;BME280;60444;43.534;-5.674;2023-02-18T02:46:43;102995.88;;;8.88;100.00
72438;BME280;60444;43.534;-5.674;2023-02-18T02:49:43;103006.63;;;8.97;100.00
72438;BME280;60444;43.534;-5.674;2023-02-18T02:52:26;102998.50;;;9.02;100.00
72438;BME280;60444;43.534;-5.674;2023-02-18T02:54:55;103002.09;;;9.02;100.00
72438;BME280;60444;43.534;-5.674;2023-02-18T02:59:52;102995.75;;;9.05;100.00
72438;BME280;60444;43.534;-5.674;2023-02-18T03:13:06;102983.06;;;9.20;100.00
72438;BME280;60444;43.534;-5.674;2023-02-18T03:20:42;102974.84;;;9.28;100.00
72438;BME280;60444;43.534;-5.674;2023-02-18T03:23:15;102978.44;;;9.30;100.00
72438;BME280;60444;43.534;-5.674;2023-02-18T03:25:43;102963.19;;;9.24;100.00
72438;BME280;60444;43.534;-5.674;2023-02-18T03:28:17;102977.53;;;9.32;100.00
72438;BME280;60444;43.534;-5.674;2023-02-18T03:30:50;102967.63;;;9.33;100.00
72438;BME280;60444;43.534;-5.674;2023-02-18T03:33:22;102953.31;;;9.23;100.00
72438;BME280;60444;43.534;-5.674;2023-02-18T03:35:51;102956.00;;;9.25;100.00
72438;BME280;60444;43.534;-5.674;2023-02-18T03:38:35;102979.31;;;9.35;100.00
72438;BME280;60444;43.534;-5.674;2023-02-18T03:41:02;102965.03;;;9.22;100.00
72438;BME280;60444;43.534;-5.674;2023-02-18T03:43:28;102981.31;;;9.15;100.00
72438;BME280;60444;43.534;-5.674;2023-02-18T03:45:54;102974.97;;;9.17;100.00
72438;BME280;60444;43.534;-5.674;2023-02-18T03:48:22;102947.13;;;9.11;100.00
72438;BME280;60444;43.534;-5.674;2023-02-18T03:50:48;102974.97;;;9.17;100.00
72438;BME280;60444;43.534;-5.674;2023-02-18T03:53:13;102942.78;;;8.95;100.00
72438;BME280;60444;43.534;-5.674;2023-02-18T03:55:39;102970.50;;;9.12;100.00
72438;BME280;60444;43.534;-5.674;2023-02-18T03:58:05;102960.66;;;9.06;100.00
72438;BME280;60444;43.534;-5.674;2023-02-18T04:00:30;102963.38;;;9.05;100.00
72438;BME280;60444;43.534;-5.674;2023-02-18T04:02:56;102962.44;;;9.10;100.00
72438;BME280;60444;43.534;-5.674;2023-02-18T04:05:21;102927.50;;;8.91;100.00
72438;BME280;60444;43.534;-5.674;2023-02-18T04:07:47;102950.81;;;9.04;100.00
72438;BME280;60444;43.534;-5.674;2023-02-18T04:10:12;102979.50;;;9.14;100.00
72438;BME280;60444;43.534;-5.674;2023-02-18T04:12:38;102971.34;;;9.20;100.00
72438;BME280;60444;43.534;-5.674;2023-02-18T04:15:03;102974.09;;;9.14;100.00
72438;BME280;60444;43.534;-5.674;2023-02-18T04:17:29;102944.56;;;8.96;100.00
72438;BME280;60444;43.534;-5.674;2023-02-18T04:19:56;102952.63;;;9.00;100.00
72438;BME280;60444;43.534;-5.674;2023-02-18T04:22:21;102951.75;;;8.94;100.00
72438;BME280;60444;43.534;-5.674;2023-02-18T04:24:47;102969.63;;;9.10;100.00
72438;BME280;60444;43.534;-5.674;2023-02-18T04:27:12;102942.75;;;8.98;100.00
72438;BME280;60444;43.534;-5.674;2023-02-18T04:29:38;102971.38;;;9.17;100.00
72438;BME280;60444;43.534;-5.674;2023-02-18T04:32:03;102949.06;;;8.97;100.00
72438;BME280;60444;43.534;-5.674;2023-02-18T04:34:29;102960.66;;;9.05;100.00
72438;BME280;60444;43.534;-5.674;2023-02-18T04:36:54;102975.91;;;9.12;100.00
72438;BME280;60444;43.534;-5.674;2023-02-18T04:39:20;102955.31;;;9.02;100.00
72438;BME280;60444;43.534;-5.674;2023-02-18T04:41:45;102975.97;;;9.06;100.00
72438;BME280;60444;43.534;-5.674;2023-02-18T04:44:11;102981.34;;;9.09;100.00
72438;BME280;60444;43.534;-5.674;2023-02-18T04:46:36;102967.00;;;9.02;100.00
72438;BME280;60444;43.534;-5.674;2023-02-18T04:49:02;102975.94;;;9.09;100.00
72438;BME280;60444;43.534;-5.674;2023-02-18T04:51:27;102958.84;;;9.08;100.00
72438;BME280;60444;43.534;-5.674;2023-02-18T04:53:53;102977.69;;;9.16;100.00
72438;BME280;60444;43.534;-5.674;2023-02-18T04:56:18;102952.59;;;9.03;100.00
72438;BME280;60444;43.534;-5.674;2023-02-18T04:58:45;102977.59;;;9.26;100.00
72438;BME280;60444;43.534;-5.674;2023-02-18T05:01:10;102966.81;;;9.23;100.00
72438;BME280;60444;43.534;-5.674;2023-02-18T05:03:36;102965.94;;;9.20;100.00
72438;BME280;60444;43.534;-5.674;2023-02-18T05:06:01;102971.25;;;9.30;100.00
72438;BME280;60444;43.534;-5.674;2023-02-18T05:08:27;102951.53;;;9.22;100.00
72438;BME280;60444;43.534;-5.674;2023-02-18T05:10:53;102944.34;;;9.20;100.00
72438;BME280;60444;43.534;-5.674;2023-02-18T05:13:18;102951.59;;;9.15;100.00
72438;BME280;60444;43.534;-5.674;2023-02-18T05:15:44;102952.50;;;9.12;100.00
72438;BME280;60444;43.534;-5.674;2023-02-18T05:18:09;102948.03;;;9.11;100.00
72438;BME280;60444;43.534;-5.674;2023-02-18T05:20:35;102950.75;;;9.07;100.00
72438;BME280;60444;43.534;-5.674;2023-02-18T05:23:01;102952.56;;;9.06;100.00
72438;BME280;60444;43.534;-5.674;2023-02-18T05:25:26;102965.09;;;9.15;100.00
72438;BME280;60444;43.534;-5.674;2023-02-18T05:27:52;102965.03;;;9.24;100.00
72438;BME280;60444;43.534;-5.674;2023-02-18T05:30:17;102952.56;;;9.06;100.00
72438;BME280;60444;43.534;-5.674;2023-02-18T05:32:43;102970.44;;;9.19;100.00
72438;BME280;60444;43.534;-5.674;2023-02-18T05:35:08;102956.97;;;9.18;100.00
72438;BME280;60444;43.534;-5.674;2023-02-18T05:37:37;102949.84;;;9.06;100.00
72438;BME280;60444;43.534;-5.674;2023-02-18T05:40:03;102969.53;;;9.19;100.00
72438;BME280;60444;43.534;-5.674;2023-02-18T05:42:29;102967.75;;;9.22;100.00
72438;BME280;60444;43.534;-5.674;2023-02-18T05:44:55;102978.44;;;9.30;100.00
72438;BME280;60444;43.534;-5.674;2023-02-18T05:47:20;102959.66;;;9.19;100.00
72438;BME280;60444;43.534;-5.674;2023-02-18T05:49:46;102942.63;;;9.10;100.00
72438;BME280;60444;43.534;-5.674;2023-02-18T05:52:11;102983.00;;;9.25;100.00
72438;BME280;60444;43.534;-5.674;2023-02-18T05:54:37;102970.50;;;9.15;100.00
72438;BME280;60444;43.534;-5.674;2023-02-18T05:57:03;102963.34;;;9.06;100.00
72438;BME280;60444;43.534;-5.674;2023-02-18T05:59:29;102974.09;;;9.14;100.00
72438;BME280;60444;43.534;-5.674;2023-02-18T06:01:55;102958.91;;;9.01;100.00
72438;BME280;60444;43.534;-5.674;2023-02-18T06:04:21;102967.88;;;9.03;100.00
72438;BME280;60444;43.534;-5.674;2023-02-18T06:06:47;102979.50;;;9.14;100.00
72438;BME280;60444;43.534;-5.674;2023-02-18T06:09:12;102975.81;;;9.21;100.00
72438;BME280;60444;43.534;-5.674;2023-02-18T06:11:38;102947.25;;;8.99;100.00
72438;BME280;60444;43.534;-5.674;2023-02-18T06:14:04;102955.22;;;9.11;100.00
72438;BME280;60444;43.534;-5.674;2023-02-18T06:16:29;102975.91;;;9.15;100.00
72438;BME280;60444;43.534;-5.674;2023-02-18T06:18:55;102955.34;;;8.99;100.00
72438;BME280;60444;43.534;-5.674;2023-02-18T06:21:21;102972.44;;;8.98;100.00
72438;BME280;60444;43.534;-5.674;2023-02-18T06:23:46;102967.97;;;8.92;100.00
72438;BME280;60444;43.534;-5.674;2023-02-18T06:26:12;102959.84;;;8.97;100.00
72438;BME280;60444;43.534;-5.674;2023-02-18T06:28:37;102966.19;;;8.91;100.00
72438;BME280;60444;43.534;-5.674;2023-02-18T06:31:03;102970.72;;;8.85;100.00
72438;BME280;60444;43.534;-5.674;2023-02-18T06:33:29;102972.47;;;8.95;100.00
72438;BME280;60444;43.534;-5.674;2023-02-18T06:36:00;102971.69;;;8.81;100.00
72438;BME280;60444;43.534;-5.674;2023-02-18T06:38:31;102954.69;;;8.68;100.00
72438;BME280;60444;43.534;-5.674;2023-02-18T06:40:56;102957.38;;;8.67;100.00
72438;BME280;60444;43.534;-5.674;2023-02-18T06:43:22;102951.00;;;8.77;100.00
72438;BME280;60444;43.534;-5.674;2023-02-18T06:45:47;102947.41;;;8.81;100.00
72438;BME280;60444;43.534;-5.674;2023-02-18T06:48:13;102969.84;;;8.83;100.00
72438;BME280;60444;43.534;-5.674;2023-02-18T06:50:40;102973.38;;;8.92;100.00
72438;BME280;60444;43.534;-5.674;2023-02-18T06:53:08;102976.22;;;8.77;100.00
72438;BME280;60444;43.534;-5.674;2023-02-18T06:55:34;102969.06;;;8.67;100.00
72438;BME280;60444;43.534;-5.674;2023-02-18T06:57:59;102976.22;;;8.71;100.00
72438;BME280;60444;43.534;-5.674;2023-02-18T07:00:25;102973.56;;;8.70;100.00
72438;BME280;60444;43.534;-5.674;2023-02-18T07:02:50;102977.16;;;8.67;100.00
72438;BME280;60444;43.534;-5.674;2023-02-18T07:05:16;102946.69;;;8.53;100.00
72438;BME280;60444;43.534;-5.674;2023-02-18T07:07:42;102981.53;;;8.85;100.00
72438;BME280;60444;43.534;-5.674;2023-02-18T07:10:08;102978.91;;;8.73;100.00
72438;BME280;60444;43.534;-5.674;2023-02-18T07:12:33;102968.09;;;8.76;100.00
72438;BME280;60444;43.534;-5.674;2023-02-18T07:14:59;102976.19;;;8.76;100.00
72438;BME280;60444;43.534;-5.674;2023-02-18T07:17:24;102976.25;;;8.67;100.00
72438;BME280;60444;43.534;-5.674;2023-02-18T07:19:50;102969.09;;;8.61;100.00
72438;BME280;60444;43.534;-5.674;2023-02-18T07:22:15;102991.59;;;8.59;100.00
72438;BME280;60444;43.534;-5.674;2023-02-18T07:24:41;102976.41;;;8.44;100.00
72438;BME280;60444;43.534;-5.674;2023-02-18T07:27:06;102979.13;;;8.36;100.00
72438;BME280;60444;43.534;-5.674;2023-02-18T07:29:32;102990.75;;;8.48;100.00
72438;BME280;60444;43.534;-5.674;2023-02-18T07:31:58;103005.13;;;8.53;100.00
72438;BME280;60444;43.534;-5.674;2023-02-18T07:34:23;103004.19;;;8.57;100.00
72438;BME280;60444;43.534;-5.674;2023-02-18T07:36:49;102995.25;;;8.52;100.00
72438;BME280;60444;43.534;-5.674;2023-02-18T07:39:14;103003.28;;;8.56;100.00
72438;BME280;60444;43.534;-5.674;2023-02-18T07:41:42;102982.69;;;8.42;100.00
72438;BME280;60444;43.534;-5.674;2023-02-18T07:44:07;102988.97;;;8.50;100.00
72438;BME280;60444;43.534;-5.674;2023-02-18T07:46:33;103009.59;;;8.57;100.00
72438;BME280;60444;43.534;-5.674;2023-02-18T07:48:58;103027.53;;;8.64;100.00
72438;BME280;60444;43.534;-5.674;2023-02-18T07:51:24;103000.69;;;8.43;100.00
72438;BME280;60444;43.534;-5.674;2023-02-18T07:53:49;103016.78;;;8.55;100.00
72438;BME280;60444;43.534;-5.674;2023-02-18T07:56:15;103023.03;;;8.64;100.00
72438;BME280;60444;43.534;-5.674;2023-02-18T07:58:41;103014.91;;;8.72;100.00
72438;BME280;60444;43.534;-5.674;2023-02-18T08:01:09;103014.13;;;8.52;100.00
72438;BME280;60444;43.534;-5.674;2023-02-18T08:03:35;103032.03;;;8.62;100.00
72438;BME280;60444;43.534;-5.674;2023-02-18T08:06:02;103015.91;;;8.57;100.00
72438;BME280;60444;43.534;-5.674;2023-02-18T08:08:29;103023.97;;;8.54;100.00
72438;BME280;60444;43.534;-5.674;2023-02-18T08:10:57;102995.34;;;8.33;100.00
72438;BME280;60444;43.534;-5.674;2023-02-18T08:13:24;103037.44;;;8.60;100.00
72438;BME280;60444;43.534;-5.674;2023-02-18T08:15:49;103012.34;;;8.48;100.00
72438;BME280;60444;43.534;-5.674;2023-02-18T08:18:19;103034.75;;;8.59;100.00
72438;BME280;60444;43.534;-5.674;2023-02-18T08:20:45;103022.16;;;8.58;100.00
72438;BME280;60444;43.534;-5.674;2023-02-18T08:23:16;103026.63;;;8.62;100.00
72438;BME280;60444;43.534;-5.674;2023-02-18T08:25:47;103042.78;;;8.74;100.00
72438;BME280;60444;43.534;-5.674;2023-02-18T08:28:13;103051.72;;;8.80;100.00
72438;BME280;60444;43.534;-5.674;2023-02-18T08:30:43;103056.19;;;8.86;100.00
72438;BME280;60444;43.534;-5.674;2023-02-18T08:33:09;103061.59;;;8.83;100.00
72438;BME280;60444;43.534;-5.674;2023-02-18T08:35:34;103047.25;;;8.75;100.00
72438;BME280;60444;43.534;-5.674;2023-02-18T08:38:00;103040.13;;;8.65;100.00
72438;BME280;60444;43.534;-5.674;2023-02-18T08:40:25;103036.47;;;8.75;100.00
72438;BME280;60444;43.534;-5.674;2023-02-18T08:42:51;103056.19;;;8.83;100.00
72438;BME280;60444;43.534;-5.674;2023-02-18T08:45:16;103065.13;;;8.94;100.00
72438;BME280;60444;43.534;-5.674;2023-02-18T08:47:42;103057.91;;;8.96;100.00
72438;BME280;60444;43.534;-5.674;2023-02-18T08:50:08;103029.19;;;8.83;100.00
72438;BME280;60444;43.534;-5.674;2023-02-18T08:52:33;103043.50;;;8.98;100.00
72438;BME280;60444;43.534;-5.674;2023-02-18T08:54:59;103056.94;;;9.07;100.00
72438;BME280;60444;43.534;-5.674;2023-02-18T08:57:26;103065.81;;;9.24;100.00
72438;BME280;60444;43.534;-5.674;2023-02-18T08:59:52;103058.56;;;9.28;100.00
72438;BME280;60444;43.534;-5.674;2023-02-18T09:02:17;103063.13;;;9.26;100.00
72438;BME280;60444;43.534;-5.674;2023-02-18T09:04:43;103064.00;;;9.26;100.00
72438;BME280;60444;43.534;-5.674;2023-02-18T09:07:08;103065.66;;;9.42;100.00
72438;BME280;60444;43.534;-5.674;2023-02-18T09:09:34;103047.81;;;9.23;100.00
72438;BME280;60444;43.534;-5.674;2023-02-18T09:12:00;103072.94;;;9.36;100.00
72438;BME280;60444;43.534;-5.674;2023-02-18T09:14:25;103063.88;;;9.41;100.00
72438;BME280;60444;43.534;-5.674;2023-02-18T09:16:51;103051.34;;;9.34;100.00
72438;BME280;60444;43.534;-5.674;2023-02-18T09:19:17;103067.41;;;9.48;100.00
72438;BME280;60444;43.534;-5.674;2023-02-18T09:21:42;103054.84;;;9.46;100.00
72438;BME280;60444;43.534;-5.674;2023-02-18T09:24:08;103069.16;;;9.58;100.00
72438;BME280;60444;43.534;-5.674;2023-02-18T09:26:35;103065.63;;;9.49;100.00
72438;BME280;60444;43.534;-5.674;2023-02-18T09:29:01;103068.22;;;9.59;100.00
72438;BME280;60444;43.534;-5.674;2023-02-18T09:31:27;103069.16;;;9.58;100.00
72438;BME280;60444;43.534;-5.674;2023-02-18T09:33:58;103061.91;;;9.59;100.00
72438;BME280;60444;43.534;-5.674;2023-02-18T09:36:25;103036.81;;;9.49;100.00
72438;BME280;60444;43.534;-5.674;2023-02-18T09:38:51;103049.31;;;9.59;100.00
72438;BME280;60444;43.534;-5.674;2023-02-18T09:41:42;103067.25;;;9.66;100.00
72438;BME280;60444;43.534;-5.674;2023-02-18T09:46:59;103060.00;;;9.74;100.00
72438;BME280;60444;43.534;-5.674;2023-02-18T09:49:29;103069.88;;;9.75;100.00
72438;BME280;60444;43.534;-5.674;2023-02-18T09:52:12;103076.13;;;9.83;100.00
72438;BME280;60444;43.534;-5.674;2023-02-18T09:54:38;103067.88;;;9.95;100.00
72438;BME280;60444;43.534;-5.674;2023-02-18T09:57:05;103073.19;;;10.03;100.00
72438;BME280;60444;43.534;-5.674;2023-02-18T09:59:32;103049.91;;;9.93;100.00
72438;BME280;60444;43.534;-5.674;2023-02-18T10:01:57;103064.16;;;10.04;100.00
72438;BME280;60444;43.534;-5.674;2023-02-18T10:04:39;103075.72;;;10.22;100.00
72438;BME280;60444;43.534;-5.674;2023-02-18T10:07:11;103075.75;;;10.21;100.00
72438;BME280;60444;43.534;-5.674;2023-02-18T10:09:42;103071.19;;;10.24;100.00
72438;BME280;60444;43.534;-5.674;2023-02-18T10:12:19;103073.84;;;10.27;100.00
72438;BME280;60444;43.534;-5.674;2023-02-18T10:14:49;103042.38;;;10.20;100.00
72438;BME280;60444;43.534;-5.674;2023-02-18T10:17:16;103058.50;;;10.32;100.00
72438;BME280;60444;43.534;-5.674;2023-02-18T10:19:44;103050.34;;;10.34;100.00
72438;BME280;60444;43.534;-5.674;2023-02-18T10:22:12;103056.44;;;10.50;100.00
72438;BME280;60444;43.534;-5.674;2023-02-18T10:24:51;103071.69;;;10.60;100.00
72438;BME280;60444;43.534;-5.674;2023-02-18T10:27:22;103064.31;;;10.69;100.00
72438;BME280;60444;43.534;-5.674;2023-02-18T10:29:49;103046.28;;;10.68;100.00
72438;BME280;60444;43.534;-5.674;2023-02-18T10:32:22;103052.38;;;10.84;100.00
72438;BME280;60444;43.534;-5.674;2023-02-18T10:34:53;103067.59;;;10.94;100.00
72438;BME280;60444;43.534;-5.674;2023-02-18T10:37:27;103049.31;;;11.08;100.00
72438;BME280;60444;43.534;-5.674;2023-02-18T10:40:09;103055.50;;;11.16;100.00
72438;BME280;60444;43.534;-5.674;2023-02-18T10:48:33;103046.72;;;11.53;100.00
72438;BME280;60444;43.534;-5.674;2023-02-18T10:51:11;103033.13;;;11.58;100.00
72438;BME280;60444;43.534;-5.674;2023-02-18T10:53:41;103040.16;;;11.71;100.00
72438;BME280;60444;43.534;-5.674;2023-02-18T10:59:00;103046.06;;;11.93;100.00
72438;BME280;60444;43.534;-5.674;2023-02-18T11:01:29;103025.28;;;11.92;100.00
72438;BME280;60444;43.534;-5.674;2023-02-18T11:04:14;103042.84;;;12.17;100.00
72438;BME280;60444;43.534;-5.674;2023-02-18T11:06:43;103037.25;;;12.27;100.00
72438;BME280;60444;43.534;-5.674;2023-02-18T11:09:42;103035.25;;;12.35;100.00
72438;BME280;60444;43.534;-5.674;2023-02-18T11:15:14;103037.66;;;12.50;100.00
72438;BME280;60444;43.534;-5.674;2023-02-18T11:17:46;103036.59;;;12.58;100.00
72438;BME280;60444;43.534;-5.674;2023-02-18T11:22:47;103031.91;;;12.64;100.00
72438;BME280;60444;43.534;-5.674;2023-02-18T11:25:30;103026.34;;;12.70;100.00
72438;BME280;60444;43.534;-5.674;2023-02-18T11:28:06;103007.56;;;12.61;100.00
72438;BME280;60444;43.534;-5.674;2023-02-18T11:30:53;103018.06;;;12.76;100.00
72438;BME280;60444;43.534;-5.674;2023-02-18T11:35:56;103011.63;;;12.80;100.00
72438;BME280;60444;43.534;-5.674;2023-02-18T11:39:16;103005.16;;;12.86;100.00
72438;BME280;60444;43.534;-5.674;2023-02-18T11:41:31;102995.09;;;12.89;100.00
72438;BME280;60444;43.534;-5.674;2023-02-18T11:43:58;103008.44;;;13.00;100.00
72438;BME280;60444;43.534;-5.674;2023-02-18T11:46:25;102998.44;;;13.03;100.00
72438;BME280;60444;43.534;-5.674;2023-02-18T11:48:52;102983.28;;;12.92;100.00
72438;BME280;60444;43.534;-5.674;2023-02-18T11:54:01;102990.34;;;12.99;100.00
72438;BME280;60444;43.534;-5.674;2023-02-18T11:56:33;102993.06;;;12.99;100.00
72438;BME280;60444;43.534;-5.674;2023-02-18T11:58:59;102988.50;;;13.01;100.00
72438;BME280;60444;43.534;-5.674;2023-02-18T12:02:05;102992.06;;;13.04;100.00
72438;BME280;60444;43.534;-5.674;2023-02-18T12:04:42;102984.94;;;12.99;100.00
72438;BME280;60444;43.534;-5.674;2023-02-18T12:07:22;102995.59;;;13.08;100.00
72438;BME280;60444;43.534;-5.674;2023-02-18T12:09:57;102985.63;;;13.08;100.00
72438;BME280;60444;43.534;-5.674;2023-02-18T12:12:26;103003.66;;;13.11;100.00
72438;BME280;60444;43.534;-5.674;2023-02-18T12:14:56;102980.25;;;13.07;100.00
72438;BME280;60444;43.534;-5.674;2023-02-18T12:26:15;102963.03;;;13.06;100.00
72438;BME280;60444;43.534;-5.674;2023-02-18T12:31:56;102974.63;;;13.13;100.00
72438;BME280;60444;43.534;-5.674;2023-02-18T12:37:19;102978.22;;;13.15;100.00
72438;BME280;60444;43.534;-5.674;2023-02-18T12:51:46;102957.56;;;13.08;100.00
72438;BME280;60444;43.534;-5.674;2023-02-18T13:08:32;102932.34;;;13.01;100.00
72438;BME280;60444;43.534;-5.674;2023-02-18T13:11:16;102948.41;;;13.12;100.00
72438;BME280;60444;43.534;-5.674;2023-02-18T13:14:06;102949.28;;;13.14;100.00
72438;BME280;60444;43.534;-5.674;2023-02-18T13:16:34;102930.47;;;13.05;100.00
72438;BME280;60444;43.534;-5.674;2023-02-18T13:19:32;102941.88;;;13.19;100.00
72438;BME280;60444;43.534;-5.674;2023-02-18T13:21:59;102943.75;;;13.17;100.00
72438;BME280;60444;43.534;-5.674;2023-02-18T13:26:55;102933.88;;;13.13;100.00
72438;BME280;60444;43.534;-5.674;2023-02-18T13:29:43;102931.13;;;13.14;100.00
72438;BME280;60444;43.534;-5.674;2023-02-18T13:32:39;102936.56;;;13.14;100.00
72438;BME280;60444;43.534;-5.674;2023-02-18T13:40:21;102938.03;;;13.27;100.00
72438;BME280;60444;43.534;-5.674;2023-02-18T13:42:53;102940.69;;;13.30;100.00
72438;BME280;60444;43.534;-5.674;2023-02-18T13:45:32;102931.63;;;13.30;100.00
72438;BME280;60444;43.534;-5.674;2023-02-18T13:47:58;102910.84;;;13.27;100.00
72438;BME280;60444;43.534;-5.674;2023-02-18T13:55:39;102918.91;;;13.32;100.00
72438;BME280;60444;43.534;-5.674;2023-02-18T14:03:36;102881.16;;;13.20;100.00
72438;BME280;60444;43.534;-5.674;2023-02-18T14:06:16;102890.22;;;13.20;100.00
72438;BME280;60444;43.534;-5.674;2023-02-18T14:08:43;102886.44;;;13.26;100.00
72438;BME280;60444;43.534;-5.674;2023-02-18T14:16:15;102902.00;;;13.53;100.00
72438;BME280;60444;43.534;-5.674;2023-02-18T14:29:00;102897.91;;;13.69;100.00
72438;BME280;60444;43.534;-5.674;2023-02-18T14:31:39;102890.66;;;13.70;100.00
72438;BME280;60444;43.534;-5.674;2023-02-18T14:44:39;102886.50;;;13.87;100.00
72438;BME280;60444;43.534;-5.674;2023-02-18T14:47:19;102885.31;;;13.96;100.00
72438;BME280;60444;43.534;-5.674;2023-02-18T14:49:52;102874.59;;;13.91;100.00
72438;BME280;60444;43.534;-5.674;2023-02-18T14:52:29;102878.81;;;14.01;100.00
72438;BME280;60444;43.534;-5.674;2023-02-18T14:54:57;102874.38;;;13.97;100.00
72438;BME280;60444;43.534;-5.674;2023-02-18T14:57:45;102863.56;;;13.96;100.00
72438;BME280;60444;43.534;-5.674;2023-02-18T15:00:34;102872.38;;;14.04;100.00
72438;BME280;60444;43.534;-5.674;2023-02-18T15:03:03;102870.56;;;14.04;100.00
72438;BME280;60444;43.534;-5.674;2023-02-18T15:05:31;102852.63;;;13.97;100.00
72438;BME280;60444;43.534;-5.674;2023-02-18T15:08:01;102848.03;;;13.99;100.00
72438;BME280;60444;43.534;-5.674;2023-02-18T15:10:42;102858.88;;;14.01;100.00
72438;BME280;60444;43.534;-5.674;2023-02-18T15:15:58;102873.13;;;14.09;100.00